Decoded Metar for KEZS ( in _UNIDENTIFIED) (IATA:N/A) | Meteo·Mobile Aviation Weather
aviador You're here:

KEZS Decoded Metar

in _UNIDENTIFIED
Report Time2019-08-19 17:55:00
UTC Time2019-08-19 18:11:46
Flight Rules vfr VFR
WindCalm
Visibility9999 m
Phenomena:N/A
Clouds:N/A
Expected CloudBase > 6,000 ft AGL from Temp-Dew spread
CeilingNone
Temp25°C (ISA +12)
Dew Point10°C (39% RH)
QNH1017 hPa
Density Alt2,192 ft
Elevation814 ft
Report Wrong Elevation
Raw Report
KEZS 191755Z AUTO 00000KT 10SM CLR 25/10 A3003 RMK AO2 T02500095
10250 20124=

Extra information for KEZS:More info

Metar Taf Metar & Taf Last 4 Metars F.Rules Stats Wind Profile Meteogram Temp Stats Metar ALERT Operation Metar Decoded Social comments